Time;durP1;ratioP1;P1;durP2;ratioP2;P2;SDS_P1;SDS_P2;PMS_P1;PMS_P2;Temp;Humidity;BMP_temperature;BMP_pressure;BME280_temperature;BME280_humidity;BME280_pressure;Samples;Min_cycle;Max_cycle;Signal;HPM_P1;HPM_P2
2022/11/23 00:01:31;;;;;;;8.75;2.45;;;;;;;;;;5035877;28;20496;-73
2022/11/23 00:03:59;;;;;;;5.57;3.03;;;;;;;;;;5044588;28;20037;-72
2022/11/23 00:06:24;;;;;;;6.68;2.30;;;;;;;;;;5040522;28;20021;-74
2022/11/23 00:08:50;;;;;;;4.68;1.98;;;;;;;;;;5047928;28;20083;-70
2022/11/23 00:11:16;;;;;;;8.38;2.83;;;;;;;;;;5036304;28;20499;-72
2022/11/23 00:13:41;;;;;;;10.07;2.78;;;;;;;;;;5042683;28;20377;-70
2022/11/23 00:16:07;;;;;;;8.15;2.28;;;;;;;;;;5036279;28;20468;-71
2022/11/23 00:18:32;;;;;;;4.88;2.42;;;;;;;;;;5034061;28;20032;-72
2022/11/23 00:20:58;;;;;;;6.13;2.55;;;;;;;;;;5041118;28;20503;-70
2022/11/23 00:23:23;;;;;;;7.88;2.30;;;;;;;;;;5050205;28;20376;-78
2022/11/23 00:25:48;;;;;;;4.20;2.20;;;;;;;;;;5042995;28;20495;-76
2022/11/23 00:28:13;;;;;;;6.87;2.57;;;;;;;;;;5038225;28;20703;-78
2022/11/23 00:30:39;;;;;;;5.30;1.80;;;;;;;;;;5034233;28;20794;-76
2022/11/23 00:33:04;;;;;;;4.18;2.20;;;;;;;;;;5041504;28;20476;-76
2022/11/23 00:35:29;;;;;;;4.47;1.77;;;;;;;;;;5044567;28;20338;-77
2022/11/23 00:37:54;;;;;;;6.70;2.00;;;;;;;;;;5044416;28;20040;-76
2022/11/23 00:40:19;;;;;;;7.60;2.37;;;;;;;;;;5047391;28;20510;-77
2022/11/23 00:42:45;;;;;;;3.95;1.98;;;;;;;;;;5046791;28;21038;-72
2022/11/23 00:45:10;;;;;;;8.65;2.53;;;;;;;;;;5045958;28;20461;-76
2022/11/23 00:47:35;;;;;;;5.85;2.70;;;;;;;;;;5029997;28;20022;-77
2022/11/23 00:50:01;;;;;;;3.97;2.13;;;;;;;;;;5044470;28;20024;-77
2022/11/23 00:52:45;;;;;;;10.35;3.15;;;;;;;;;;5050039;28;20028;-77
2022/11/23 00:55:30;;;;;;;7.50;2.45;;;;;;;;;;5039086;28;20108;-76
2022/11/23 00:58:16;;;;;;;7.07;2.00;;;;;;;;;;5050133;28;20107;-78
2022/11/23 01:01:07;;;;;;;5.82;1.67;;;;;;;;;;5045183;28;20032;-77
2022/11/23 01:03:54;;;;;;;6.88;2.42;;;;;;;;;;5042237;28;20028;-76
2022/11/23 01:06:40;;;;;;;6.53;1.90;;;;;;;;;;5050736;28;20028;-75
2022/11/23 01:09:25;;;;;;;7.22;2.08;;;;;;;;;;5048299;28;20075;-77
2022/11/23 01:12:11;;;;;;;3.97;2.00;;;;;;;;;;5053050;28;20310;-76
2022/11/23 01:14:57;;;;;;;9.82;2.95;;;;;;;;;;5041975;28;20114;-77
2022/11/23 01:17:42;;;;;;;4.45;2.38;;;;;;;;;;5047948;28;20490;-73
2022/11/23 01:20:28;;;;;;;7.47;2.25;;;;;;;;;;5054134;28;20021;-71
2022/11/23 01:23:13;;;;;;;5.90;2.25;;;;;;;;;;5040976;28;20017;-70
2022/11/23 01:26:06;;;;;;;4.35;1.75;;;;;;;;;;5051535;28;20369;-70
2022/11/23 01:28:52;;;;;;;4.88;1.85;;;;;;;;;;5049276;28;20112;-70
2022/11/23 01:31:39;;;;;;;4.68;1.90;;;;;;;;;;5043729;28;20029;-70
2022/11/23 01:34:25;;;;;;;8.90;3.72;;;;;;;;;;5053545;28;20029;-71
2022/11/23 01:37:10;;;;;;;6.28;2.35;;;;;;;;;;5047470;28;20387;-71
2022/11/23 01:39:56;;;;;;;5.95;2.60;;;;;;;;;;5052076;28;20136;-78
2022/11/23 01:42:55;;;;;;;5.85;2.70;;;;;;;;;;5055256;28;20034;-77
2022/11/23 01:45:59;;;;;;;5.60;2.05;;;;;;;;;;5047039;28;20467;-77
2022/11/23 01:48:51;;;;;;;5.10;1.75;;;;;;;;;;5040363;28;20025;-78
2022/11/23 01:51:42;;;;;;;6.25;2.10;;;;;;;;;;5041756;28;20590;-78
2022/11/23 01:54:30;;;;;;;6.50;1.77;;;;;;;;;;5037500;28;20052;-72
2022/11/23 01:57:18;;;;;;;5.78;2.45;;;;;;;;;;5040265;28;20388;-70
2022/11/23 02:00:03;;;;;;;6.88;2.10;;;;;;;;;;5045991;28;20029;-71
2022/11/23 02:02:57;;;;;;;7.13;2.15;;;;;;;;;;5046074;28;20029;-70
2022/11/23 02:05:43;;;;;;;8.00;2.63;;;;;;;;;;5037094;28;20097;-71
2022/11/23 02:08:30;;;;;;;6.57;2.50;;;;;;;;;;5046923;28;20476;-72
2022/11/23 02:11:15;;;;;;;6.55;1.75;;;;;;;;;;5041373;28;20031;-72
2022/11/23 02:14:01;;;;;;;4.38;2.10;;;;;;;;;;5054259;28;20049;-70
2022/11/23 02:16:47;;;;;;;2.83;1.73;;;;;;;;;;5058433;28;20032;-77
2022/11/23 02:20:11;;;;;;;2.72;1.60;;;;;;;;;;5052679;28;20051;-77
2022/11/23 02:23:02;;;;;;;6.40;1.85;;;;;;;;;;5051153;28;20400;-76
2022/11/23 02:25:53;;;;;;;5.43;1.98;;;;;;;;;;5047416;28;20013;-77
2022/11/23 02:28:42;;;;;;;5.28;1.92;;;;;;;;;;5041519;28;20108;-79
2022/11/23 02:31:28;;;;;;;5.55;1.55;;;;;;;;;;5048485;28;20017;-70
2022/11/23 02:34:15;;;;;;;3.65;1.75;;;;;;;;;;5048777;28;20044;-70
2022/11/23 02:37:01;;;;;;;3.55;1.70;;;;;;;;;;5049965;28;20035;-71
2022/11/23 02:39:50;;;;;;;4.60;2.03;;;;;;;;;;5048249;28;20029;-70
2022/11/23 02:42:36;;;;;;;;;;;;;;;;;;5042599;28;20025;-70
2022/11/23 02:45:26;;;;;;;9.00;2.60;;;;;;;;;;5017337;28;19919;-70
2022/11/23 02:48:12;;;;;;;3.28;1.25;;;;;;;;;;5058750;28;20571;-71
2022/11/23 02:50:58;;;;;;;5.22;1.55;;;;;;;;;;5030322;28;20392;-72
2022/11/23 02:53:43;;;;;;;3.17;1.50;;;;;;;;;;5032921;28;20151;-70
2022/11/23 02:56:29;;;;;;;4.30;1.70;;;;;;;;;;5047635;28;20037;-70
2022/11/23 02:59:14;;;;;;;4.43;1.48;;;;;;;;;;5040155;28;20492;-69
2022/11/23 03:02:00;;;;;;;6.18;1.33;;;;;;;;;;5045770;28;20025;-69
2022/11/23 03:04:46;;;;;;;4.38;1.77;;;;;;;;;;5049902;28;20493;-70
2022/11/23 03:07:40;;;;;;;3.15;1.30;;;;;;;;;;5036544;28;20129;-74
2022/11/23 03:10:26;;;;;;;4.22;1.40;;;;;;;;;;5040250;28;20021;-73
2022/11/23 03:13:12;;;;;;;4.28;1.60;;;;;;;;;;5046378;28;20041;-72
2022/11/23 03:15:57;;;;;;;5.78;1.90;;;;;;;;;;5050273;28;20064;-73
2022/11/23 03:18:43;;;;;;;3.35;1.30;;;;;;;;;;5045564;28;20035;-72
2022/11/23 03:21:28;;;;;;;2.50;1.45;;;;;;;;;;5048972;28;20025;-72
2022/11/23 03:24:15;;;;;;;3.67;2.10;;;;;;;;;;5039467;28;20029;-73
2022/11/23 03:27:01;;;;;;;5.85;1.52;;;;;;;;;;5040886;28;20458;-72
2022/11/23 03:29:46;;;;;;;5.20;1.48;;;;;;;;;;5047580;28;20035;-79
2022/11/23 03:32:32;;;;;;;3.28;1.30;;;;;;;;;;5045178;28;20108;-80
2022/11/23 03:35:17;;;;;;;2.55;1.75;;;;;;;;;;5045845;28;20041;-78
2022/11/23 03:38:03;;;;;;;4.35;1.27;;;;;;;;;;5046836;28;20021;-78
2022/11/23 03:40:48;;;;;;;3.10;1.42;;;;;;;;;;5043585;28;20029;-78
2022/11/23 03:43:34;;;;;;;3.92;1.52;;;;;;;;;;5049371;28;20543;-78
2022/11/23 03:46:19;;;;;;;2.72;1.30;;;;;;;;;;5033002;28;20034;-78
2022/11/23 03:49:05;;;;;;;6.32;1.58;;;;;;;;;;5040857;28;20103;-78
2022/11/23 03:51:50;;;;;;;4.13;1.85;;;;;;;;;;5047315;28;20310;-78
2022/11/23 03:54:36;;;;;;;4.90;1.83;;;;;;;;;;5043694;28;20036;-78
2022/11/23 03:57:22;;;;;;;4.68;1.40;;;;;;;;;;5043870;28;20025;-78
2022/11/23 04:00:07;;;;;;;9.23;1.33;;;;;;;;;;5044947;28;20039;-79
2022/11/23 04:02:53;;;;;;;4.85;1.83;;;;;;;;;;5041086;28;20025;-72
2022/11/23 04:05:38;;;;;;;6.72;2.30;;;;;;;;;;5037542;28;20048;-70
2022/11/23 04:08:24;;;;;;;5.40;2.05;;;;;;;;;;5035441;28;20079;-70
2022/11/23 04:11:10;;;;;;;5.78;1.48;;;;;;;;;;5037681;28;20021;-70
2022/11/23 04:13:55;;;;;;;2.65;1.30;;;;;;;;;;5043036;28;20505;-70
2022/11/23 04:16:41;;;;;;;6.47;1.80;;;;;;;;;;5044342;28;20039;-70
2022/11/23 04:19:06;;;;;;;5.32;1.95;;;;;;;;;;5046996;28;20033;-71
2022/11/23 04:21:31;;;;;;;6.97;1.38;;;;;;;;;;5046932;28;20013;-71
2022/11/23 04:23:57;;;;;;;4.38;1.58;;;;;;;;;;5052095;28;20021;-80
2022/11/23 04:26:22;;;;;;;4.93;1.90;;;;;;;;;;5046011;28;20021;-77
2022/11/23 04:28:47;;;;;;;4.15;1.35;;;;;;;;;;5038498;28;20025;-76
2022/11/23 04:31:13;;;;;;;3.58;1.70;;;;;;;;;;5037707;28;20024;-76
2022/11/23 04:33:38;;;;;;;5.30;1.52;;;;;;;;;;5035367;28;20033;-77
2022/11/23 04:36:03;;;;;;;7.45;2.55;;;;;;;;;;5041895;28;20432;-75
2022/11/23 04:38:29;;;;;;;3.38;1.20;;;;;;;;;;5045392;28;20017;-76
2022/11/23 04:40:54;;;;;;;3.60;1.70;;;;;;;;;;5049152;28;20070;-70
2022/11/23 04:43:19;;;;;;;3.17;1.60;;;;;;;;;;5044901;28;20301;-69
2022/11/23 04:45:45;;;;;;;9.60;2.85;;;;;;;;;;5042717;28;20053;-70
2022/11/23 04:48:10;;;;;;;4.10;1.50;;;;;;;;;;5052083;28;20036;-70
2022/11/23 04:50:36;;;;;;;4.53;1.83;;;;;;;;;;5050217;28;20029;-70
2022/11/23 04:53:02;;;;;;;7.63;2.08;;;;;;;;;;5045072;28;20059;-69
2022/11/23 04:55:27;;;;;;;6.72;1.80;;;;;;;;;;5051209;28;20406;-70
2022/11/23 04:57:52;;;;;;;4.03;1.95;;;;;;;;;;5050362;28;20052;-72
2022/11/23 05:00:17;;;;;;;7.27;2.20;;;;;;;;;;5060217;28;20009;-73
2022/11/23 05:02:43;;;;;;;5.93;2.05;;;;;;;;;;5040247;28;20307;-71
2022/11/23 05:05:08;;;;;;;6.83;1.63;;;;;;;;;;5044807;28;20028;-70
2022/11/23 05:07:33;;;;;;;5.55;1.73;;;;;;;;;;5053958;28;20766;-71
2022/11/23 05:09:59;;;;;;;4.95;1.73;;;;;;;;;;5049090;28;20036;-71
2022/11/23 05:12:24;;;;;;;6.30;1.60;;;;;;;;;;5054704;28;20092;-70
2022/11/23 05:14:49;;;;;;;4.45;1.50;;;;;;;;;;5051160;28;20078;-70
2022/11/23 05:17:15;;;;;;;11.73;2.13;;;;;;;;;;5054790;28;20479;-78
2022/11/23 05:19:40;;;;;;;5.80;1.70;;;;;;;;;;5044311;28;20311;-79
2022/11/23 05:22:05;;;;;;;4.40;1.45;;;;;;;;;;5054933;28;20024;-78
2022/11/23 05:24:30;;;;;;;3.60;1.57;;;;;;;;;;5043152;28;20491;-79
2022/11/23 05:26:55;;;;;;;4.07;2.70;;;;;;;;;;5058571;28;20263;-79
2022/11/23 05:29:21;;;;;;;4.80;1.40;;;;;;;;;;5044441;28;20055;-78
2022/11/23 05:31:46;;;;;;;9.57;2.95;;;;;;;;;;5052693;28;20426;-81
2022/11/23 05:34:11;;;;;;;7.03;1.93;;;;;;;;;;5069740;28;20032;-72
2022/11/23 05:36:36;;;;;;;8.18;2.03;;;;;;;;;;5046932;28;20277;-70
2022/11/23 05:39:02;;;;;;;7.60;1.90;;;;;;;;;;5050518;28;20112;-78
2022/11/23 05:41:27;;;;;;;8.35;2.35;;;;;;;;;;5041370;28;20017;-78
2022/11/23 05:43:52;;;;;;;6.43;2.27;;;;;;;;;;5048266;28;20088;-79
2022/11/23 05:46:17;;;;;;;5.57;1.90;;;;;;;;;;5050461;28;20284;-78
2022/11/23 05:48:43;;;;;;;4.32;2.15;;;;;;;;;;5047780;28;20025;-78
2022/11/23 05:51:08;;;;;;;7.80;2.05;;;;;;;;;;5049197;28;20100;-78
2022/11/23 05:53:33;;;;;;;4.60;1.45;;;;;;;;;;5042378;28;20037;-77
2022/11/23 05:56:00;;;;;;;7.22;2.65;;;;;;;;;;5047837;28;20473;-74
2022/11/23 05:58:25;;;;;;;6.40;1.92;;;;;;;;;;5045853;28;20023;-75
2022/11/23 06:00:50;;;;;;;4.43;2.00;;;;;;;;;;5052644;28;20589;-75
2022/11/23 06:03:15;;;;;;;7.85;2.00;;;;;;;;;;5043431;28;20107;-73
2022/11/23 06:05:41;;;;;;;8.45;1.83;;;;;;;;;;5053281;28;20476;-74
2022/11/23 06:08:06;;;;;;;4.67;1.90;;;;;;;;;;5057124;28;20481;-75
2022/11/23 06:10:31;;;;;;;4.13;1.98;;;;;;;;;;5048159;28;20260;-74
2022/11/23 06:13:01;;;;;;;4.97;1.75;;;;;;;;;;5060544;28;20163;-74
2022/11/23 06:15:26;;;;;;;3.58;2.00;;;;;;;;;;5052825;28;20165;-75
2022/11/23 06:17:51;;;;;;;6.97;2.03;;;;;;;;;;5057541;28;20060;-74
2022/11/23 06:20:16;;;;;;;4.00;2.13;;;;;;;;;;5063586;28;20321;-75
2022/11/23 06:22:41;;;;;;;5.43;2.25;;;;;;;;;;5047369;28;20267;-74
2022/11/23 06:25:07;;;;;;;5.43;2.38;;;;;;;;;;5045965;28;20040;-73
2022/11/23 06:27:32;;;;;;;6.75;2.88;;;;;;;;;;5037833;28;20090;-74
2022/11/23 06:29:57;;;;;;;3.95;2.15;;;;;;;;;;5046478;28;20393;-72
2022/11/23 06:32:23;;;;;;;6.43;1.95;;;;;;;;;;5052604;28;20433;-78
2022/11/23 06:34:48;;;;;;;5.63;2.30;;;;;;;;;;5046770;28;20029;-77
2022/11/23 06:37:13;;;;;;;4.37;1.93;;;;;;;;;;5031680;28;20358;-77
2022/11/23 06:39:39;;;;;;;3.78;1.88;;;;;;;;;;5047885;28;20268;-76
2022/11/23 06:42:04;;;;;;;4.20;1.70;;;;;;;;;;5045442;28;20476;-77
2022/11/23 06:44:30;;;;;;;8.15;1.90;;;;;;;;;;5040663;28;20060;-79
2022/11/23 06:46:55;;;;;;;6.97;2.17;;;;;;;;;;5045067;28;20012;-77
2022/11/23 06:49:21;;;;;;;5.22;1.83;;;;;;;;;;5056342;28;20476;-78
2022/11/23 06:51:46;;;;;;;5.18;2.20;;;;;;;;;;5046786;28;20087;-72
2022/11/23 06:54:11;;;;;;;4.70;2.00;;;;;;;;;;5039458;28;20087;-71
2022/11/23 06:56:37;;;;;;;6.70;2.63;;;;;;;;;;5042033;28;20055;-71
2022/11/23 06:59:02;;;;;;;7.15;2.38;;;;;;;;;;5051333;28;20107;-71
2022/11/23 07:01:27;;;;;;;5.63;1.98;;;;;;;;;;5047929;28;20040;-72
2022/11/23 07:03:53;;;;;;;8.70;2.35;;;;;;;;;;5047626;28;20032;-70
2022/11/23 07:06:18;;;;;;;6.13;2.00;;;;;;;;;;5050131;28;20017;-74
2022/11/23 07:08:44;;;;;;;9.77;2.33;;;;;;;;;;5049901;28;20013;-75
2022/11/23 07:11:10;;;;;;;9.25;2.50;;;;;;;;;;5038367;28;20120;-78
2022/11/23 07:13:35;;;;;;;4.00;2.20;;;;;;;;;;5048837;28;20451;-80
2022/11/23 07:16:00;;;;;;;5.25;2.00;;;;;;;;;;5040959;28;20021;-79
2022/11/23 07:18:26;;;;;;;7.37;2.77;;;;;;;;;;5040396;28;20010;-78
2022/11/23 07:20:51;;;;;;;11.15;1.90;;;;;;;;;;5042724;28;20269;-77
2022/11/23 07:23:17;;;;;;;7.32;2.28;;;;;;;;;;5041795;28;20108;-79
2022/11/23 07:25:42;;;;;;;3.28;1.70;;;;;;;;;;5039358;28;20060;-78
2022/11/23 07:28:09;;;;;;;8.60;1.90;;;;;;;;;;5044416;28;20488;-73
2022/11/23 07:30:35;;;;;;;5.65;1.98;;;;;;;;;;5043748;28;20380;-74
2022/11/23 07:33:01;;;;;;;5.63;2.17;;;;;;;;;;5038543;28;20021;-73
2022/11/23 07:35:26;;;;;;;5.60;1.98;;;;;;;;;;5051689;28;20036;-72
2022/11/23 07:37:52;;;;;;;9.40;2.50;;;;;;;;;;5035898;28;20029;-75
2022/11/23 07:40:17;;;;;;;6.63;1.90;;;;;;;;;;5039996;28;20029;-73
2022/11/23 07:42:43;;;;;;;12.18;1.73;;;;;;;;;;5043353;28;20533;-73
2022/11/23 07:45:09;;;;;;;7.80;2.38;;;;;;;;;;5043678;28;20057;-74
2022/11/23 07:47:34;;;;;;;7.93;2.63;;;;;;;;;;5048582;28;20017;-75
2022/11/23 07:49:59;;;;;;;9.77;2.63;;;;;;;;;;5043431;28;20032;-80
2022/11/23 07:52:24;;;;;;;6.05;2.58;;;;;;;;;;5038994;28;20017;-81
2022/11/23 07:54:50;;;;;;;7.65;2.58;;;;;;;;;;5043670;28;20487;-80
2022/11/23 07:57:15;;;;;;;6.20;2.22;;;;;;;;;;5050858;28;20027;-78
2022/11/23 07:59:41;;;;;;;5.60;1.80;;;;;;;;;;5036811;28;20436;-77
2022/11/23 08:02:09;;;;;;;13.50;3.03;;;;;;;;;;5050997;28;20021;-79
2022/11/23 08:04:34;;;;;;;11.90;2.03;;;;;;;;;;5046866;28;20658;-76
2022/11/23 08:07:01;;;;;;;6.90;2.10;;;;;;;;;;5047918;28;20013;-73
2022/11/23 08:09:26;;;;;;;7.28;2.33;;;;;;;;;;5044078;28;20288;-74
2022/11/23 08:11:51;;;;;;;8.30;2.30;;;;;;;;;;5040913;28;20036;-70
2022/11/23 08:14:17;;;;;;;5.80;1.83;;;;;;;;;;5037592;28;20409;-71
2022/11/23 08:16:42;;;;;;;6.05;1.85;;;;;;;;;;5038848;28;20009;-73
2022/11/23 08:19:07;;;;;;;5.50;2.20;;;;;;;;;;5043880;28;20024;-71
2022/11/23 08:21:33;;;;;;;6.35;2.55;;;;;;;;;;5044583;28;20033;-75
2022/11/23 08:23:58;;;;;;;7.20;2.78;;;;;;;;;;5042348;28;20025;-79
2022/11/23 08:26:23;;;;;;;7.55;2.40;;;;;;;;;;5042300;28;20465;-82
2022/11/23 08:28:49;;;;;;;5.60;1.83;;;;;;;;;;5036079;28;20152;-79
2022/11/23 08:31:14;;;;;;;3.63;1.80;;;;;;;;;;5041984;28;20049;-79
2022/11/23 08:33:39;;;;;;;6.32;2.17;;;;;;;;;;5038405;28;20013;-82
2022/11/23 08:36:06;;;;;;;5.90;1.80;;;;;;;;;;5033270;28;20492;-80
2022/11/23 08:38:32;;;;;;;4.68;2.00;;;;;;;;;;5046327;28;20208;-75
2022/11/23 08:40:59;;;;;;;4.40;2.17;;;;;;;;;;5061258;28;20060;-77
2022/11/23 08:43:24;;;;;;;7.15;2.22;;;;;;;;;;5051522;28;20051;-80
2022/11/23 08:45:52;;;;;;;5.45;2.45;;;;;;;;;;5043362;28;20053;-81
2022/11/23 08:48:17;;;;;;;7.10;2.05;;;;;;;;;;5039818;28;20025;-82
2022/11/23 08:50:43;;;;;;;4.93;1.98;;;;;;;;;;5047640;28;20079;-82
2022/11/23 08:53:08;;;;;;;9.85;2.13;;;;;;;;;;5041759;28;20021;-82
2022/11/23 08:55:33;;;;;;;7.03;2.35;;;;;;;;;;5042448;28;20037;-84
2022/11/23 08:57:59;;;;;;;5.05;2.10;;;;;;;;;;5050388;28;20017;-82
2022/11/23 09:00:25;;;;;;;6.80;2.10;;;;;;;;;;5046761;28;20033;-78
2022/11/23 09:02:50;;;;;;;4.75;1.77;;;;;;;;;;5038917;28;20017;-78
2022/11/23 09:05:17;;;;;;;5.78;1.70;;;;;;;;;;5040670;28;20473;-79
2022/11/23 09:07:42;;;;;;;9.32;1.90;;;;;;;;;;5034597;28;20040;-78
2022/11/23 09:10:08;;;;;;;7.43;2.05;;;;;;;;;;5053248;28;20467;-79
2022/11/23 09:12:33;;;;;;;5.38;1.70;;;;;;;;;;5050578;28;20380;-79
2022/11/23 09:14:58;;;;;;;7.30;2.42;;;;;;;;;;5035937;28;20040;-79
2022/11/23 09:17:24;;;;;;;7.27;2.43;;;;;;;;;;5044188;28;20104;-72
2022/11/23 09:19:49;;;;;;;6.67;1.97;;;;;;;;;;5041460;28;20363;-81
2022/11/23 09:22:14;;;;;;;8.00;2.05;;;;;;;;;;5040228;28;20267;-81
2022/11/23 09:24:40;;;;;;;4.90;2.38;;;;;;;;;;5054417;28;20021;-80
2022/11/23 09:27:05;;;;;;;5.65;1.88;;;;;;;;;;5046154;28;20021;-82
2022/11/23 09:29:30;;;;;;;5.05;2.05;;;;;;;;;;5043233;28;20021;-81
2022/11/23 09:31:56;;;;;;;7.85;2.63;;;;;;;;;;5041197;28;20042;-82
2022/11/23 09:34:21;;;;;;;3.53;1.80;;;;;;;;;;5033685;28;20029;-75
2022/11/23 09:36:47;;;;;;;7.07;2.72;;;;;;;;;;5040655;28;20021;-83
2022/11/23 09:39:12;;;;;;;6.45;2.42;;;;;;;;;;5045442;28;20021;-78
2022/11/23 09:41:53;;;;;;;5.80;1.80;;;;;;;;;;5045291;28;20009;-79
2022/11/23 09:44:23;;;;;;;12.18;2.30;;;;;;;;;;5055346;28;20646;-78
2022/11/23 09:46:54;;;;;;;7.18;1.98;;;;;;;;;;5040080;28;20040;-78
2022/11/23 09:49:21;;;;;;;10.23;2.03;;;;;;;;;;5037058;28;20025;-80
2022/11/23 09:51:47;;;;;;;8.23;2.20;;;;;;;;;;5049783;28;20365;-87
2022/11/23 09:54:18;;;;;;;6.38;2.35;;;;;;;;;;5049738;28;20033;-73
2022/11/23 09:56:45;;;;;;;7.43;3.08;;;;;;;;;;5047210;28;20117;-74
2022/11/23 09:59:28;;;;;;;6.85;2.08;;;;;;;;;;5047685;28;20017;-71
2022/11/23 10:01:54;;;;;;;6.78;2.22;;;;;;;;;;5047277;28;20028;-74
2022/11/23 10:04:20;;;;;;;6.97;2.08;;;;;;;;;;5047567;28;20531;-74
2022/11/23 10:06:51;;;;;;;12.68;2.35;;;;;;;;;;5036056;28;20528;-73
2022/11/23 10:09:29;;;;;;;6.97;2.35;;;;;;;;;;5042638;28;20044;-75
2022/11/23 10:12:13;;;;;;;7.57;1.75;;;;;;;;;;5052708;28;20035;-80
2022/11/23 10:14:50;;;;;;;4.70;1.63;;;;;;;;;;5049335;28;20247;-69
2022/11/23 10:17:34;;;;;;;5.40;1.73;;;;;;;;;;5045594;28;20117;-70
2022/11/23 10:20:24;;;;;;;7.88;2.33;;;;;;;;;;5042829;28;20043;-72
2022/11/23 10:23:00;;;;;;;6.65;2.53;;;;;;;;;;5047613;28;20112;-70
2022/11/23 10:25:28;;;;;;;6.70;1.75;;;;;;;;;;5045331;28;20052;-70
2022/11/23 10:27:55;;;;;;;4.90;1.45;;;;;;;;;;5039944;28;20026;-69
2022/11/23 10:30:20;;;;;;;3.80;2.03;;;;;;;;;;5041339;28;20037;-73
2022/11/23 10:32:52;;;;;;;4.72;1.90;;;;;;;;;;5050698;28;20039;-79
2022/11/23 10:35:23;;;;;;;7.78;1.67;;;;;;;;;;5047656;28;20037;-82
2022/11/23 10:37:48;;;;;;;5.70;1.92;;;;;;;;;;5046374;28;20109;-78
2022/11/23 10:40:17;;;;;;;8.45;2.40;;;;;;;;;;5041279;28;20447;-79
2022/11/23 10:42:46;;;;;;;8.82;2.60;;;;;;;;;;5049990;28;20029;-80
2022/11/23 10:45:18;;;;;;;3.60;1.50;;;;;;;;;;5040936;28;20018;-74
2022/11/23 10:47:58;;;;;;;7.22;2.63;;;;;;;;;;5066137;28;20036;-78
2022/11/23 10:50:23;;;;;;;4.20;1.40;;;;;;;;;;5038087;28;22034;-69
2022/11/23 10:53:16;;;;;;;5.68;2.22;;;;;;;;;;5038759;28;20070;-71
2022/11/23 10:55:52;;;;;;;6.15;1.80;;;;;;;;;;5043228;28;20024;-72
2022/11/23 10:58:47;;;;;;;6.70;1.73;;;;;;;;;;5047254;28;20474;-71
2022/11/23 11:01:13;;;;;;;4.28;2.47;;;;;;;;;;5044658;28;20025;-70
2022/11/23 11:03:39;;;;;;;5.43;1.70;;;;;;;;;;5037308;28;20040;-71
2022/11/23 11:06:04;;;;;;;6.30;1.92;;;;;;;;;;5041704;28;20018;-73
2022/11/23 11:08:31;;;;;;;6.50;1.83;;;;;;;;;;5031711;28;20014;-71
2022/11/23 11:11:01;;;;;;;10.05;1.80;;;;;;;;;;5050237;28;20166;-73
2022/11/23 11:13:41;;;;;;;14.40;2.70;;;;;;;;;;5047870;28;20558;-71
2022/11/23 11:16:06;;;;;;;;;;;;;;;;;;5043485;28;20380;-72
2022/11/23 11:18:33;;;;;;;14.77;3.17;;;;;;;;;;5057390;28;20362;-72
2022/11/23 11:21:24;;;;;;;22.15;4.40;;;;;;;;;;5043339;28;20568;-70
2022/11/23 11:23:52;;;;;;;64.72;7.47;;;;;;;;;;5043614;28;20111;-80
2022/11/23 11:26:21;;;;;;;22.27;2.38;;;;;;;;;;5038424;28;20423;-74
2022/11/23 11:28:48;;;;;;;15.68;2.60;;;;;;;;;;5046758;28;20064;-77
2022/11/23 11:31:36;;;;;;;17.05;2.78;;;;;;;;;;5049011;28;20073;-79
2022/11/23 11:34:04;;;;;;;10.48;2.63;;;;;;;;;;5044180;28;20083;-77
2022/11/23 11:36:33;;;;;;;13.13;2.47;;;;;;;;;;5045348;28;20433;-78
2022/11/23 11:39:01;;;;;;;23.92;3.85;;;;;;;;;;5050386;28;20028;-78
2022/11/23 11:41:28;;;;;;;15.07;3.20;;;;;;;;;;5045225;28;20018;-78
2022/11/23 11:44:06;;;;;;;8.30;2.20;;;;;;;;;;5044866;28;20099;-79
2022/11/23 11:46:34;;;;;;;5.10;2.42;;;;;;;;;;5039641;28;20091;-73
2022/11/23 11:49:07;;;;;;;3.72;2.13;;;;;;;;;;5042278;28;20422;-74
2022/11/23 11:51:35;;;;;;;9.80;1.90;;;;;;;;;;5046432;28;20049;-73
2022/11/23 11:54:04;;;;;;;9.18;1.95;;;;;;;;;;5048275;28;20468;-74
2022/11/23 11:56:40;;;;;;;5.33;1.97;;;;;;;;;;5047842;28;20169;-73
2022/11/23 11:59:12;;;;;;;5.55;1.70;;;;;;;;;;5042425;28;20412;-73
2022/11/23 12:01:43;;;;;;;9.18;2.38;;;;;;;;;;5044453;28;20450;-76
2022/11/23 12:04:11;;;;;;;6.38;2.17;;;;;;;;;;5034014;28;20022;-74
2022/11/23 12:06:50;;;;;;;14.18;2.55;;;;;;;;;;5047389;28;20129;-72
2022/11/23 12:09:18;;;;;;;10.47;2.43;;;;;;;;;;5037111;28;20033;-73
2022/11/23 12:11:43;;;;;;;10.88;1.60;;;;;;;;;;5043003;28;20295;-74
2022/11/23 12:14:11;;;;;;;5.97;2.20;;;;;;;;;;5047298;28;20041;-73
2022/11/23 12:16:36;;;;;;;4.82;1.50;;;;;;;;;;5039161;28;20037;-73
2022/11/23 12:19:07;;;;;;;7.25;2.70;;;;;;;;;;5039599;28;20017;-84
2022/11/23 12:21:32;;;;;;;9.50;1.92;;;;;;;;;;5035607;28;20053;-80
2022/11/23 12:23:57;;;;;;;7.07;2.33;;;;;;;;;;5046076;28;20315;-74
2022/11/23 12:26:31;;;;;;;5.17;1.87;;;;;;;;;;5039063;28;20279;-71
2022/11/23 12:29:00;;;;;;;4.97;1.50;;;;;;;;;;5034004;28;20279;-79
2022/11/23 12:31:40;;;;;;;3.05;1.70;;;;;;;;;;5037768;28;20039;-74
2022/11/23 12:34:12;;;;;;;7.22;2.85;;;;;;;;;;5033552;28;20603;-71
2022/11/23 12:36:56;;;;;;;2.88;1.42;;;;;;;;;;5031108;28;20392;-76
2022/11/23 12:39:36;;;;;;;3.42;1.63;;;;;;;;;;5034054;28;20098;-73
2022/11/23 12:42:20;;;;;;;4.65;1.40;;;;;;;;;;5036768;28;20626;-76
2022/11/23 12:44:50;;;;;;;6.65;1.92;;;;;;;;;;5039779;28;20350;-83
2022/11/23 12:47:15;;;;;;;;;;;;;;;;;;5041307;28;20100;-85
2022/11/23 12:49:44;;;;;;;5.47;1.50;;;;;;;;;;5040090;28;20349;-78
2022/11/23 12:52:16;;;;;;;3.63;1.67;;;;;;;;;;5035205;28;20285;-82
2022/11/23 12:55:00;;;;;;;4.43;1.38;;;;;;;;;;5035096;28;20063;-78
2022/11/23 12:57:29;;;;;;;4.40;1.38;;;;;;;;;;5049998;28;20048;-76
2022/11/23 13:00:13;;;;;;;3.87;1.43;;;;;;;;;;5040489;28;20079;-80
2022/11/23 13:02:41;;;;;;;2.78;1.55;;;;;;;;;;5040875;28;20286;-79
2022/11/23 13:05:06;;;;;;;2.63;1.25;;;;;;;;;;5037091;28;20009;-73
2022/11/23 13:07:31;;;;;;;2.87;1.40;;;;;;;;;;5036662;28;20021;-74
2022/11/23 13:10:17;;;;;;;5.13;1.20;;;;;;;;;;5039248;28;20359;-74
2022/11/23 13:12:55;;;;;;;2.28;1.23;;;;;;;;;;5048596;28;20292;-79
2022/11/23 13:15:45;;;;;;;4.05;1.30;;;;;;;;;;5046618;28;20123;-82
2022/11/23 13:18:11;;;;;;;1.02;0.77;;;;;;;;;;5037849;28;20380;-74
2022/11/23 13:20:42;;;;;;;2.83;1.17;;;;;;;;;;5041859;28;20034;-71
2022/11/23 13:23:07;;;;;;;7.28;1.70;;;;;;;;;;5039505;28;20081;-72
2022/11/23 13:25:32;;;;;;;2.28;1.45;;;;;;;;;;5049521;28;20066;-75
2022/11/23 13:27:59;;;;;;;3.05;1.05;;;;;;;;;;5043609;28;20017;-74
2022/11/23 13:30:29;;;;;;;6.10;1.30;;;;;;;;;;5040873;28;20484;-71
2022/11/23 13:32:54;;;;;;;3.17;1.08;;;;;;;;;;5037859;28;20830;-75
2022/11/23 13:35:19;;;;;;;3.80;1.10;;;;;;;;;;5039037;28;20030;-85
2022/11/23 13:38:08;;;;;;;2.15;1.08;;;;;;;;;;5041324;28;20037;-76
2022/11/23 13:40:36;;;;;;;2.90;1.17;;;;;;;;;;5046393;28;20072;-78
2022/11/23 13:43:08;;;;;;;3.17;1.50;;;;;;;;;;5036917;28;20018;-75
2022/11/23 13:45:35;;;;;;;3.67;1.58;;;;;;;;;;5040851;28;20024;-76
2022/11/23 13:48:09;;;;;;;4.20;1.20;;;;;;;;;;5038790;28;20025;-76
2022/11/23 13:50:35;;;;;;;4.32;1.40;;;;;;;;;;5044182;28;20118;-78
2022/11/23 13:53:01;;;;;;;3.60;1.10;;;;;;;;;;5043456;28;20166;-82
2022/11/23 13:55:34;;;;;;;3.63;1.33;;;;;;;;;;5041949;28;20536;-79
2022/11/23 13:58:25;;;;;;;2.53;1.23;;;;;;;;;;5034846;28;20036;-75
2022/11/23 14:00:54;;;;;;;7.57;1.50;;;;;;;;;;5053923;28;20029;-78
2022/11/23 14:03:38;;;;;;;4.32;1.20;;;;;;;;;;5038311;28;20017;-81
2022/11/23 14:06:17;;;;;;;4.38;1.23;;;;;;;;;;5037572;28;20021;-80
2022/11/23 14:08:42;;;;;;;4.97;1.50;;;;;;;;;;5046326;28;20032;-80
2022/11/23 14:11:10;;;;;;;3.50;1.40;;;;;;;;;;5037702;28;20430;-72
2022/11/23 14:13:36;;;;;;;2.30;1.10;;;;;;;;;;5038813;28;20034;-72
2022/11/23 14:16:02;;;;;;;2.72;1.23;;;;;;;;;;5045474;28;20503;-68
2022/11/23 14:18:28;;;;;;;2.90;1.65;;;;;;;;;;5037989;28;20045;-70
2022/11/23 14:21:12;;;;;;;6.28;1.10;;;;;;;;;;5038400;28;20540;-69
2022/11/23 14:23:49;;;;;;;2.72;1.00;;;;;;;;;;5043005;28;20391;-69
2022/11/23 14:26:20;;;;;;;6.05;1.92;;;;;;;;;;5035379;28;20029;-70
2022/11/23 14:28:45;;;;;;;4.43;1.40;;;;;;;;;;5040668;28;20029;-77
2022/11/23 14:31:11;;;;;;;7.05;1.73;;;;;;;;;;5034955;28;20020;-75
2022/11/23 14:33:42;;;;;;;24.08;2.75;;;;;;;;;;5042427;28;20043;-74
2022/11/23 14:36:07;;;;;;;10.30;2.30;;;;;;;;;;5036087;28;20025;-73
2022/11/23 14:38:51;;;;;;;9.25;1.65;;;;;;;;;;5036242;28;20847;-77
2022/11/23 14:41:18;;;;;;;19.45;2.10;;;;;;;;;;5045018;28;20145;-76
2022/11/23 14:43:45;;;;;;;12.20;1.90;;;;;;;;;;5046397;28;20036;-74
2022/11/23 14:46:14;;;;;;;25.45;4.10;;;;;;;;;;5043789;28;20379;-74
2022/11/23 14:48:40;;;;;;;;;;;;;;;;;;5038245;28;20017;-76
2022/11/23 14:51:10;;;;;;;50.25;7.07;;;;;;;;;;5042467;28;19916;-75
2022/11/23 14:53:52;;;;;;;74.68;6.85;;;;;;;;;;5035038;28;20025;-76
2022/11/23 14:56:20;;;;;;;75.97;9.13;;;;;;;;;;5038687;28;20428;-74
2022/11/23 14:58:45;;;;;;;57.45;7.03;;;;;;;;;;5040825;28;20012;-73
2022/11/23 15:01:17;;;;;;;104.63;11.50;;;;;;;;;;5040013;28;20039;-74
2022/11/23 15:03:42;;;;;;;136.73;13.55;;;;;;;;;;5046546;28;20017;-77
2022/11/23 15:06:11;;;;;;;105.83;10.20;;;;;;;;;;5039691;28;20048;-92
2022/11/23 15:08:46;;;;;;;135.02;14.00;;;;;;;;;;5044358;28;20367;-80
2022/11/23 15:11:14;;;;;;;77.55;5.93;;;;;;;;;;5049916;28;20044;-79
2022/11/23 15:13:46;;;;;;;69.32;6.97;;;;;;;;;;5041919;28;20421;-87